sensor_id;sensor_type;location;lat;lon;timestamp;temperature;humidity
4813;DHT22;2420;51.202;8.698;2023-06-04T00:01:43;11.60;1.00
4813;DHT22;2420;51.202;8.698;2023-06-04T00:04:11;11.60;1.00
4813;DHT22;2420;51.202;8.698;2023-06-04T00:06:36;11.60;1.00
4813;DHT22;2420;51.202;8.698;2023-06-04T00:09:02;11.60;1.00
4813;DHT22;2420;51.202;8.698;2023-06-04T00:11:27;11.60;1.00
4813;DHT22;2420;51.202;8.698;2023-06-04T00:13:53;11.50;1.00
4813;DHT22;2420;51.202;8.698;2023-06-04T00:16:18;11.50;1.00
4813;DHT22;2420;51.202;8.698;2023-06-04T00:18:44;11.40;1.00
4813;DHT22;2420;51.202;8.698;2023-06-04T00:21:09;11.40;1.00
4813;DHT22;2420;51.202;8.698;2023-06-04T00:23:35;11.30;1.00
4813;DHT22;2420;51.202;8.698;2023-06-04T00:26:00;11.30;1.00
4813;DHT22;2420;51.202;8.698;2023-06-04T00:28:26;11.30;1.00
4813;DHT22;2420;51.202;8.698;2023-06-04T00:30:51;11.20;1.00
4813;DHT22;2420;51.202;8.698;2023-06-04T00:33:17;11.10;1.00
4813;DHT22;2420;51.202;8.698;2023-06-04T00:35:42;11.10;1.00
4813;DHT22;2420;51.202;8.698;2023-06-04T00:38:08;11.00;1.00
4813;DHT22;2420;51.202;8.698;2023-06-04T00:40:33;10.90;1.00
4813;DHT22;2420;51.202;8.698;2023-06-04T00:42:59;10.80;1.00
4813;DHT22;2420;51.202;8.698;2023-06-04T00:45:24;10.80;1.00
4813;DHT22;2420;51.202;8.698;2023-06-04T00:47:51;10.70;1.00
4813;DHT22;2420;51.202;8.698;2023-06-04T00:50:18;10.70;1.00
4813;DHT22;2420;51.202;8.698;2023-06-04T00:52:46;10.70;1.00
4813;DHT22;2420;51.202;8.698;2023-06-04T00:55:12;10.60;1.00
4813;DHT22;2420;51.202;8.698;2023-06-04T00:57:38;10.50;1.00
4813;DHT22;2420;51.202;8.698;2023-06-04T01:00:04;10.50;1.00
4813;DHT22;2420;51.202;8.698;2023-06-04T01:02:31;10.50;1.00
4813;DHT22;2420;51.202;8.698;2023-06-04T01:07:55;10.40;1.00
4813;DHT22;2420;51.202;8.698;2023-06-04T01:10:22;10.40;1.00
4813;DHT22;2420;51.202;8.698;2023-06-04T01:12:48;10.40;1.00
4813;DHT22;2420;51.202;8.698;2023-06-04T01:15:13;10.40;1.00
4813;DHT22;2420;51.202;8.698;2023-06-04T01:17:41;10.40;1.00
4813;DHT22;2420;51.202;8.698;2023-06-04T01:25:39;10.20;1.00
4813;DHT22;2420;51.202;8.698;2023-06-04T01:28:07;10.30;1.00
4813;DHT22;2420;51.202;8.698;2023-06-04T01:30:35;10.30;1.00
4813;DHT22;2420;51.202;8.698;2023-06-04T01:33:02;10.30;1.00
4813;DHT22;2420;51.202;8.698;2023-06-04T01:35:29;10.20;1.00
4813;DHT22;2420;51.202;8.698;2023-06-04T01:37:57;10.10;1.00
4813;DHT22;2420;51.202;8.698;2023-06-04T01:40:23;10.20;1.00
4813;DHT22;2420;51.202;8.698;2023-06-04T01:42:48;10.10;1.00
4813;DHT22;2420;51.202;8.698;2023-06-04T01:45:15;10.10;1.00
4813;DHT22;2420;51.202;8.698;2023-06-04T01:47:40;10.10;1.00
4813;DHT22;2420;51.202;8.698;2023-06-04T01:50:07;10.10;1.00
4813;DHT22;2420;51.202;8.698;2023-06-04T01:52:39;10.10;1.00
4813;DHT22;2420;51.202;8.698;2023-06-04T01:55:07;10.10;1.00
4813;DHT22;2420;51.202;8.698;2023-06-04T01:57:36;10.00;1.00
4813;DHT22;2420;51.202;8.698;2023-06-04T02:00:02;10.00;1.00
4813;DHT22;2420;51.202;8.698;2023-06-04T02:02:29;10.10;1.00
4813;DHT22;2420;51.202;8.698;2023-06-04T02:04:55;10.00;1.00
4813;DHT22;2420;51.202;8.698;2023-06-04T02:07:20;10.00;1.00
4813;DHT22;2420;51.202;8.698;2023-06-04T02:09:49;10.00;1.00
4813;DHT22;2420;51.202;8.698;2023-06-04T02:12:15;10.00;1.00
4813;DHT22;2420;51.202;8.698;2023-06-04T02:14:41;10.00;1.00
4813;DHT22;2420;51.202;8.698;2023-06-04T02:17:07;9.90;1.00
4813;DHT22;2420;51.202;8.698;2023-06-04T02:19:41;9.90;1.00
4813;DHT22;2420;51.202;8.698;2023-06-04T02:22:13;9.90;1.00
4813;DHT22;2420;51.202;8.698;2023-06-04T02:24:40;9.90;1.00
4813;DHT22;2420;51.202;8.698;2023-06-04T02:27:08;9.80;1.00
4813;DHT22;2420;51.202;8.698;2023-06-04T02:29:33;9.80;1.00
4813;DHT22;2420;51.202;8.698;2023-06-04T02:31:59;9.80;1.00
4813;DHT22;2420;51.202;8.698;2023-06-04T02:34:25;9.80;1.00
4813;DHT22;2420;51.202;8.698;2023-06-04T02:36:51;9.80;1.00
4813;DHT22;2420;51.202;8.698;2023-06-04T02:39:18;9.70;1.00
4813;DHT22;2420;51.202;8.698;2023-06-04T02:41:44;9.80;1.00
4813;DHT22;2420;51.202;8.698;2023-06-04T02:44:10;9.80;1.00
4813;DHT22;2420;51.202;8.698;2023-06-04T02:46:44;9.60;1.00
4813;DHT22;2420;51.202;8.698;2023-06-04T02:49:10;9.60;1.00
4813;DHT22;2420;51.202;8.698;2023-06-04T02:51:42;9.60;1.00
4813;DHT22;2420;51.202;8.698;2023-06-04T02:54:08;9.50;1.00
4813;DHT22;2420;51.202;8.698;2023-06-04T02:56:35;9.50;1.00
4813;DHT22;2420;51.202;8.698;2023-06-04T02:59:01;9.40;1.00
4813;DHT22;2420;51.202;8.698;2023-06-04T03:01:27;9.30;1.00
4813;DHT22;2420;51.202;8.698;2023-06-04T03:03:54;9.30;1.00
4813;DHT22;2420;51.202;8.698;2023-06-04T03:06:22;9.20;1.00
4813;DHT22;2420;51.202;8.698;2023-06-04T03:08:50;9.20;1.00
4813;DHT22;2420;51.202;8.698;2023-06-04T03:11:16;9.10;1.00
4813;DHT22;2420;51.202;8.698;2023-06-04T03:13:41;9.20;1.00
4813;DHT22;2420;51.202;8.698;2023-06-04T03:16:07;9.20;1.00
4813;DHT22;2420;51.202;8.698;2023-06-04T03:18:41;9.10;1.00
4813;DHT22;2420;51.202;8.698;2023-06-04T03:21:07;9.00;1.00
4813;DHT22;2420;51.202;8.698;2023-06-04T03:23:34;8.90;1.00
4813;DHT22;2420;51.202;8.698;2023-06-04T03:26:03;8.90;1.00
4813;DHT22;2420;51.202;8.698;2023-06-04T03:28:30;9.00;1.00
4813;DHT22;2420;51.202;8.698;2023-06-04T03:30:56;8.90;1.00
4813;DHT22;2420;51.202;8.698;2023-06-04T03:33:22;9.00;1.00
4813;DHT22;2420;51.202;8.698;2023-06-04T03:35:48;9.00;1.00
4813;DHT22;2420;51.202;8.698;2023-06-04T03:38:14;9.00;1.00
4813;DHT22;2420;51.202;8.698;2023-06-04T03:40:43;9.00;1.00
4813;DHT22;2420;51.202;8.698;2023-06-04T03:43:09;9.00;1.00
4813;DHT22;2420;51.202;8.698;2023-06-04T03:45:35;8.80;1.00
4813;DHT22;2420;51.202;8.698;2023-06-04T03:48:00;8.80;1.00
4813;DHT22;2420;51.202;8.698;2023-06-04T03:50:26;8.70;1.00
4813;DHT22;2420;51.202;8.698;2023-06-04T03:52:51;8.70;1.00
4813;DHT22;2420;51.202;8.698;2023-06-04T03:55:17;8.80;1.00
4813;DHT22;2420;51.202;8.698;2023-06-04T03:57:43;8.80;1.00
4813;DHT22;2420;51.202;8.698;2023-06-04T04:00:09;8.80;1.00
4813;DHT22;2420;51.202;8.698;2023-06-04T04:02:42;8.80;1.00
4813;DHT22;2420;51.202;8.698;2023-06-04T04:05:08;8.90;1.00
4813;DHT22;2420;51.202;8.698;2023-06-04T04:07:35;8.90;1.00
4813;DHT22;2420;51.202;8.698;2023-06-04T04:10:00;8.90;1.00
4813;DHT22;2420;51.202;8.698;2023-06-04T04:12:26;8.90;1.00
4813;DHT22;2420;51.202;8.698;2023-06-04T04:14:52;9.00;1.00
4813;DHT22;2420;51.202;8.698;2023-06-04T04:17:17;9.00;1.00
4813;DHT22;2420;51.202;8.698;2023-06-04T04:19:43;9.00;1.00
4813;DHT22;2420;51.202;8.698;2023-06-04T04:22:11;9.00;1.00
4813;DHT22;2420;51.202;8.698;2023-06-04T04:24:36;9.00;1.00
4813;DHT22;2420;51.202;8.698;2023-06-04T04:27:04;9.00;1.00
4813;DHT22;2420;51.202;8.698;2023-06-04T04:29:30;9.10;1.00
4813;DHT22;2420;51.202;8.698;2023-06-04T04:31:59;9.20;1.00
4813;DHT22;2420;51.202;8.698;2023-06-04T04:34:34;9.30;1.00
4813;DHT22;2420;51.202;8.698;2023-06-04T04:37:03;9.40;1.00
4813;DHT22;2420;51.202;8.698;2023-06-04T04:39:28;9.50;1.00
4813;DHT22;2420;51.202;8.698;2023-06-04T04:41:54;9.60;1.00
4813;DHT22;2420;51.202;8.698;2023-06-04T04:44:20;9.70;1.00
4813;DHT22;2420;51.202;8.698;2023-06-04T04:46:48;9.80;1.00
4813;DHT22;2420;51.202;8.698;2023-06-04T04:49:13;9.90;1.00
4813;DHT22;2420;51.202;8.698;2023-06-04T04:51:39;10.00;1.00
4813;DHT22;2420;51.202;8.698;2023-06-04T04:54:05;10.10;1.00
4813;DHT22;2420;51.202;8.698;2023-06-04T04:56:33;10.20;1.00
4813;DHT22;2420;51.202;8.698;2023-06-04T04:58:58;10.20;1.00
4813;DHT22;2420;51.202;8.698;2023-06-04T05:01:24;10.40;1.00
4813;DHT22;2420;51.202;8.698;2023-06-04T05:03:51;10.80;1.00
4813;DHT22;2420;51.202;8.698;2023-06-04T05:06:17;11.30;1.00
4813;DHT22;2420;51.202;8.698;2023-06-04T05:08:43;11.90;1.00
4813;DHT22;2420;51.202;8.698;2023-06-04T05:11:08;12.50;1.00
4813;DHT22;2420;51.202;8.698;2023-06-04T05:13:34;13.00;1.00
4813;DHT22;2420;51.202;8.698;2023-06-04T05:16:00;13.60;1.00
4813;DHT22;2420;51.202;8.698;2023-06-04T05:18:34;14.00;1.00
4813;DHT22;2420;51.202;8.698;2023-06-04T05:21:00;14.40;1.00
4813;DHT22;2420;51.202;8.698;2023-06-04T05:23:28;14.90;1.00
4813;DHT22;2420;51.202;8.698;2023-06-04T05:25:54;15.20;1.00
4813;DHT22;2420;51.202;8.698;2023-06-04T05:28:20;15.50;1.00
4813;DHT22;2420;51.202;8.698;2023-06-04T05:30:46;15.70;1.00
4813;DHT22;2420;51.202;8.698;2023-06-04T05:33:14;15.80;1.00
4813;DHT22;2420;51.202;8.698;2023-06-04T05:35:46;15.80;1.00
4813;DHT22;2420;51.202;8.698;2023-06-04T05:38:12;15.80;1.00
4813;DHT22;2420;51.202;8.698;2023-06-04T05:40:42;15.90;1.00
4813;DHT22;2420;51.202;8.698;2023-06-04T05:43:08;16.20;1.00
4813;DHT22;2420;51.202;8.698;2023-06-04T05:45:34;16.10;1.00
4813;DHT22;2420;51.202;8.698;2023-06-04T05:47:59;16.00;1.00
4813;DHT22;2420;51.202;8.698;2023-06-04T05:50:25;15.90;1.00
4813;DHT22;2420;51.202;8.698;2023-06-04T05:52:51;16.00;1.00
4813;DHT22;2420;51.202;8.698;2023-06-04T05:55:16;16.00;1.00
4813;DHT22;2420;51.202;8.698;2023-06-04T05:57:42;16.00;1.00
4813;DHT22;2420;51.202;8.698;2023-06-04T06:00:08;16.00;1.00
4813;DHT22;2420;51.202;8.698;2023-06-04T06:02:36;16.10;1.00
4813;DHT22;2420;51.202;8.698;2023-06-04T06:05:04;16.10;1.00
4813;DHT22;2420;51.202;8.698;2023-06-04T06:07:32;16.00;1.00
4813;DHT22;2420;51.202;8.698;2023-06-04T06:09:57;16.10;1.00
4813;DHT22;2420;51.202;8.698;2023-06-04T06:12:23;16.10;1.00
4813;DHT22;2420;51.202;8.698;2023-06-04T06:14:48;16.30;1.00
4813;DHT22;2420;51.202;8.698;2023-06-04T06:17:14;16.40;1.00
4813;DHT22;2420;51.202;8.698;2023-06-04T06:19:40;16.50;1.00
4813;DHT22;2420;51.202;8.698;2023-06-04T06:22:05;16.30;1.00
4813;DHT22;2420;51.202;8.698;2023-06-04T06:24:31;16.30;1.00
4813;DHT22;2420;51.202;8.698;2023-06-04T06:26:56;16.20;1.00
4813;DHT22;2420;51.202;8.698;2023-06-04T06:29:22;16.00;1.00
4813;DHT22;2420;51.202;8.698;2023-06-04T06:31:47;16.10;1.00
4813;DHT22;2420;51.202;8.698;2023-06-04T06:34:13;16.30;1.00
4813;DHT22;2420;51.202;8.698;2023-06-04T06:36:39;16.40;1.00
4813;DHT22;2420;51.202;8.698;2023-06-04T06:39:04;16.20;1.00
4813;DHT22;2420;51.202;8.698;2023-06-04T06:41:30;16.30;1.00
4813;DHT22;2420;51.202;8.698;2023-06-04T06:43:59;16.30;1.00
4813;DHT22;2420;51.202;8.698;2023-06-04T06:46:24;16.40;1.00
4813;DHT22;2420;51.202;8.698;2023-06-04T06:48:50;16.50;1.00
4813;DHT22;2420;51.202;8.698;2023-06-04T06:51:16;16.30;1.00
4813;DHT22;2420;51.202;8.698;2023-06-04T06:53:42;16.40;1.00
4813;DHT22;2420;51.202;8.698;2023-06-04T06:56:07;16.50;1.00
4813;DHT22;2420;51.202;8.698;2023-06-04T06:58:33;16.70;1.00
4813;DHT22;2420;51.202;8.698;2023-06-04T07:00:59;16.60;1.00
4813;DHT22;2420;51.202;8.698;2023-06-04T07:03:25;16.50;1.00
4813;DHT22;2420;51.202;8.698;2023-06-04T07:05:50;16.60;1.00
4813;DHT22;2420;51.202;8.698;2023-06-04T07:08:16;16.70;1.00
4813;DHT22;2420;51.202;8.698;2023-06-04T07:10:41;16.50;1.00
4813;DHT22;2420;51.202;8.698;2023-06-04T07:13:07;16.40;1.00
4813;DHT22;2420;51.202;8.698;2023-06-04T07:15:32;16.60;1.00
4813;DHT22;2420;51.202;8.698;2023-06-04T07:17:58;16.70;1.00
4813;DHT22;2420;51.202;8.698;2023-06-04T07:20:25;16.90;1.00
4813;DHT22;2420;51.202;8.698;2023-06-04T07:22:52;17.30;1.00
4813;DHT22;2420;51.202;8.698;2023-06-04T07:25:19;17.40;1.00
4813;DHT22;2420;51.202;8.698;2023-06-04T07:27:55;17.70;1.00
4813;DHT22;2420;51.202;8.698;2023-06-04T07:30:26;17.90;1.00
4813;DHT22;2420;51.202;8.698;2023-06-04T07:32:56;17.70;1.00
4813;DHT22;2420;51.202;8.698;2023-06-04T07:35:24;17.80;1.00
4813;DHT22;2420;51.202;8.698;2023-06-04T07:37:51;17.60;1.00
4813;DHT22;2420;51.202;8.698;2023-06-04T07:40:17;17.70;1.00
4813;DHT22;2420;51.202;8.698;2023-06-04T07:42:46;17.80;1.00
4813;DHT22;2420;51.202;8.698;2023-06-04T07:45:14;17.90;1.00
4813;DHT22;2420;51.202;8.698;2023-06-04T07:47:42;18.00;1.00
4813;DHT22;2420;51.202;8.698;2023-06-04T07:50:08;18.00;1.00
4813;DHT22;2420;51.202;8.698;2023-06-04T07:52:35;18.00;1.00
4813;DHT22;2420;51.202;8.698;2023-06-04T07:55:08;17.90;1.00
4813;DHT22;2420;51.202;8.698;2023-06-04T07:57:34;18.20;1.00
4813;DHT22;2420;51.202;8.698;2023-06-04T08:00:00;18.20;1.00
4813;DHT22;2420;51.202;8.698;2023-06-04T08:02:29;18.30;1.00
4813;DHT22;2420;51.202;8.698;2023-06-04T08:04:54;18.20;1.00
4813;DHT22;2420;51.202;8.698;2023-06-04T08:07:20;18.60;1.00
4813;DHT22;2420;51.202;8.698;2023-06-04T08:09:45;18.70;1.00
4813;DHT22;2420;51.202;8.698;2023-06-04T08:12:11;18.90;1.00
4813;DHT22;2420;51.202;8.698;2023-06-04T08:14:37;18.90;1.00
4813;DHT22;2420;51.202;8.698;2023-06-04T08:17:02;19.10;1.00
4813;DHT22;2420;51.202;8.698;2023-06-04T08:19:28;19.40;1.00
4813;DHT22;2420;51.202;8.698;2023-06-04T08:21:54;19.30;1.00
4813;DHT22;2420;51.202;8.698;2023-06-04T08:24:19;18.80;1.00
4813;DHT22;2420;51.202;8.698;2023-06-04T08:26:45;18.80;1.00
4813;DHT22;2420;51.202;8.698;2023-06-04T08:29:10;18.90;1.00
4813;DHT22;2420;51.202;8.698;2023-06-04T08:31:36;19.40;1.00
4813;DHT22;2420;51.202;8.698;2023-06-04T08:34:02;19.70;1.00
4813;DHT22;2420;51.202;8.698;2023-06-04T08:36:30;19.50;1.00
4813;DHT22;2420;51.202;8.698;2023-06-04T08:38:58;19.70;1.00
4813;DHT22;2420;51.202;8.698;2023-06-04T08:44:09;19.70;1.00
4813;DHT22;2420;51.202;8.698;2023-06-04T08:46:38;19.90;1.00
4813;DHT22;2420;51.202;8.698;2023-06-04T08:49:07;19.70;1.00
4813;DHT22;2420;51.202;8.698;2023-06-04T08:51:36;19.90;1.00
4813;DHT22;2420;51.202;8.698;2023-06-04T08:54:06;19.70;1.00
4813;DHT22;2420;51.202;8.698;2023-06-04T08:56:33;19.30;1.00
4813;DHT22;2420;51.202;8.698;2023-06-04T08:59:03;19.50;1.00
4813;DHT22;2420;51.202;8.698;2023-06-04T09:01:32;19.70;1.00
4813;DHT22;2420;51.202;8.698;2023-06-04T09:04:01;19.60;1.00
4813;DHT22;2420;51.202;8.698;2023-06-04T09:06:28;19.60;1.00
4813;DHT22;2420;51.202;8.698;2023-06-04T09:08:56;19.50;1.00
4813;DHT22;2420;51.202;8.698;2023-06-04T09:11:27;19.80;1.00
4813;DHT22;2420;51.202;8.698;2023-06-04T09:13:59;20.10;1.00
4813;DHT22;2420;51.202;8.698;2023-06-04T09:16:26;19.70;1.00
4813;DHT22;2420;51.202;8.698;2023-06-04T09:18:53;19.70;1.00
4813;DHT22;2420;51.202;8.698;2023-06-04T09:21:19;19.70;1.00
4813;DHT22;2420;51.202;8.698;2023-06-04T09:23:48;19.70;1.00
4813;DHT22;2420;51.202;8.698;2023-06-04T09:26:14;19.50;1.00
4813;DHT22;2420;51.202;8.698;2023-06-04T09:28:44;19.30;1.00
4813;DHT22;2420;51.202;8.698;2023-06-04T09:31:13;19.30;1.00
4813;DHT22;2420;51.202;8.698;2023-06-04T09:33:47;19.80;1.00
4813;DHT22;2420;51.202;8.698;2023-06-04T09:36:14;20.20;1.00
4813;DHT22;2420;51.202;8.698;2023-06-04T09:38:40;20.20;1.00
4813;DHT22;2420;51.202;8.698;2023-06-04T09:41:13;20.60;1.00
4813;DHT22;2420;51.202;8.698;2023-06-04T09:43:39;20.30;1.00
4813;DHT22;2420;51.202;8.698;2023-06-04T09:46:13;20.50;1.00
4813;DHT22;2420;51.202;8.698;2023-06-04T09:48:39;20.70;1.00
4813;DHT22;2420;51.202;8.698;2023-06-04T09:51:12;20.60;1.00
4813;DHT22;2420;51.202;8.698;2023-06-04T09:53:39;20.60;1.00
4813;DHT22;2420;51.202;8.698;2023-06-04T09:56:06;21.10;1.00
4813;DHT22;2420;51.202;8.698;2023-06-04T09:58:32;20.80;1.00
4813;DHT22;2420;51.202;8.698;2023-06-04T10:01:01;20.60;1.00
4813;DHT22;2420;51.202;8.698;2023-06-04T10:03:35;20.80;1.00
4813;DHT22;2420;51.202;8.698;2023-06-04T10:06:04;20.60;1.00
4813;DHT22;2420;51.202;8.698;2023-06-04T10:08:31;20.40;1.00
4813;DHT22;2420;51.202;8.698;2023-06-04T10:11:00;20.30;1.00
4813;DHT22;2420;51.202;8.698;2023-06-04T10:13:31;20.10;1.00
4813;DHT22;2420;51.202;8.698;2023-06-04T10:16:00;20.50;1.00
4813;DHT22;2420;51.202;8.698;2023-06-04T10:18:27;20.70;1.00
4813;DHT22;2420;51.202;8.698;2023-06-04T10:20:55;21.00;1.00
4813;DHT22;2420;51.202;8.698;2023-06-04T10:23:22;20.80;1.00
4813;DHT22;2420;51.202;8.698;2023-06-04T10:25:49;21.20;1.00
4813;DHT22;2420;51.202;8.698;2023-06-04T10:28:18;21.30;1.00
4813;DHT22;2420;51.202;8.698;2023-06-04T10:30:45;21.30;1.00
4813;DHT22;2420;51.202;8.698;2023-06-04T10:33:11;21.30;1.00
4813;DHT22;2420;51.202;8.698;2023-06-04T10:35:37;21.40;1.00
4813;DHT22;2420;51.202;8.698;2023-06-04T10:38:06;21.80;1.00
4813;DHT22;2420;51.202;8.698;2023-06-04T10:40:33;22.00;1.00
4813;DHT22;2420;51.202;8.698;2023-06-04T10:43:05;22.20;1.00
4813;DHT22;2420;51.202;8.698;2023-06-04T10:45:31;21.90;1.00
4813;DHT22;2420;51.202;8.698;2023-06-04T10:48:04;21.80;1.00
4813;DHT22;2420;51.202;8.698;2023-06-04T10:50:31;21.90;1.00
4813;DHT22;2420;51.202;8.698;2023-06-04T10:52:56;21.50;1.00
4813;DHT22;2420;51.202;8.698;2023-06-04T10:55:24;21.50;1.00
4813;DHT22;2420;51.202;8.698;2023-06-04T10:57:54;21.50;1.00
4813;DHT22;2420;51.202;8.698;2023-06-04T11:00:20;21.90;1.00
4813;DHT22;2420;51.202;8.698;2023-06-04T11:02:54;22.00;1.00
4813;DHT22;2420;51.202;8.698;2023-06-04T11:05:21;21.60;1.00
4813;DHT22;2420;51.202;8.698;2023-06-04T11:07:48;21.30;1.00
4813;DHT22;2420;51.202;8.698;2023-06-04T11:10:15;21.30;1.00
4813;DHT22;2420;51.202;8.698;2023-06-04T11:12:43;21.60;1.00
4813;DHT22;2420;51.202;8.698;2023-06-04T11:15:09;22.00;1.00
4813;DHT22;2420;51.202;8.698;2023-06-04T11:17:35;22.20;1.00
4813;DHT22;2420;51.202;8.698;2023-06-04T11:20:01;21.70;1.00
4813;DHT22;2420;51.202;8.698;2023-06-04T11:22:28;21.50;1.00
4813;DHT22;2420;51.202;8.698;2023-06-04T11:24:57;21.50;1.00
4813;DHT22;2420;51.202;8.698;2023-06-04T11:27:25;21.00;1.00
4813;DHT22;2420;51.202;8.698;2023-06-04T11:29:51;21.10;1.00
4813;DHT22;2420;51.202;8.698;2023-06-04T11:32:24;21.40;1.00
4813;DHT22;2420;51.202;8.698;2023-06-04T11:34:50;21.80;1.00
4813;DHT22;2420;51.202;8.698;2023-06-04T11:37:15;22.20;1.00
4813;DHT22;2420;51.202;8.698;2023-06-04T11:39:41;22.20;1.00
4813;DHT22;2420;51.202;8.698;2023-06-04T11:42:09;21.90;1.00
4813;DHT22;2420;51.202;8.698;2023-06-04T11:44:36;21.90;1.00
4813;DHT22;2420;51.202;8.698;2023-06-04T11:47:08;22.20;1.00
4813;DHT22;2420;51.202;8.698;2023-06-04T11:49:35;22.00;1.00
4813;DHT22;2420;51.202;8.698;2023-06-04T11:52:01;21.80;1.00
4813;DHT22;2420;51.202;8.698;2023-06-04T11:54:27;21.90;1.00
4813;DHT22;2420;51.202;8.698;2023-06-04T11:56:53;22.10;1.00
4813;DHT22;2420;51.202;8.698;2023-06-04T11:59:19;22.10;1.00
4813;DHT22;2420;51.202;8.698;2023-06-04T12:01:46;22.20;1.00
4813;DHT22;2420;51.202;8.698;2023-06-04T12:04:16;21.90;1.00
4813;DHT22;2420;51.202;8.698;2023-06-04T12:06:56;21.90;1.00
4813;DHT22;2420;51.202;8.698;2023-06-04T12:09:30;21.90;1.00
4813;DHT22;2420;51.202;8.698;2023-06-04T12:12:07;22.10;1.00
4813;DHT22;2420;51.202;8.698;2023-06-04T12:14:33;21.80;1.00
4813;DHT22;2420;51.202;8.698;2023-06-04T12:17:00;21.90;1.00
4813;DHT22;2420;51.202;8.698;2023-06-04T12:19:27;22.00;1.00
4813;DHT22;2420;51.202;8.698;2023-06-04T12:22:04;22.40;1.00
4813;DHT22;2420;51.202;8.698;2023-06-04T12:24:31;22.80;1.00
4813;DHT22;2420;51.202;8.698;2023-06-04T12:27:03;22.80;1.00
4813;DHT22;2420;51.202;8.698;2023-06-04T12:29:29;23.10;1.00
4813;DHT22;2420;51.202;8.698;2023-06-04T12:32:08;23.00;1.00
4813;DHT22;2420;51.202;8.698;2023-06-04T12:34:35;22.90;1.00
4813;DHT22;2420;51.202;8.698;2023-06-04T12:37:02;22.90;1.00
4813;DHT22;2420;51.202;8.698;2023-06-04T12:39:32;22.70;1.00
4813;DHT22;2420;51.202;8.698;2023-06-04T12:41:58;22.60;1.00
4813;DHT22;2420;51.202;8.698;2023-06-04T12:44:23;22.70;1.00
4813;DHT22;2420;51.202;8.698;2023-06-04T12:46:49;22.60;1.00
4813;DHT22;2420;51.202;8.698;2023-06-04T12:49:15;22.20;1.00
4813;DHT22;2420;51.202;8.698;2023-06-04T12:51:41;22.10;1.00
4813;DHT22;2420;51.202;8.698;2023-06-04T12:54:06;22.00;1.00
4813;DHT22;2420;51.202;8.698;2023-06-04T12:56:32;21.90;1.00
4813;DHT22;2420;51.202;8.698;2023-06-04T12:58:58;22.00;1.00
4813;DHT22;2420;51.202;8.698;2023-06-04T13:01:24;22.10;1.00
4813;DHT22;2420;51.202;8.698;2023-06-04T13:03:49;21.90;1.00
4813;DHT22;2420;51.202;8.698;2023-06-04T13:06:15;22.10;1.00
4813;DHT22;2420;51.202;8.698;2023-06-04T13:08:43;22.00;1.00
4813;DHT22;2420;51.202;8.698;2023-06-04T13:11:09;22.30;1.00
4813;DHT22;2420;51.202;8.698;2023-06-04T13:13:36;22.50;1.00
4813;DHT22;2420;51.202;8.698;2023-06-04T13:16:02;22.50;1.00
4813;DHT22;2420;51.202;8.698;2023-06-04T13:18:28;22.60;1.00
4813;DHT22;2420;51.202;8.698;2023-06-04T13:20:54;22.40;1.00
4813;DHT22;2420;51.202;8.698;2023-06-04T13:23:19;22.30;1.00
4813;DHT22;2420;51.202;8.698;2023-06-04T13:25:45;22.20;1.00
4813;DHT22;2420;51.202;8.698;2023-06-04T13:28:10;22.40;1.00
4813;DHT22;2420;51.202;8.698;2023-06-04T13:30:36;22.70;1.00
4813;DHT22;2420;51.202;8.698;2023-06-04T13:33:03;22.80;1.00
4813;DHT22;2420;51.202;8.698;2023-06-04T13:35:28;22.70;1.00
4813;DHT22;2420;51.202;8.698;2023-06-04T13:37:54;22.40;1.00
4813;DHT22;2420;51.202;8.698;2023-06-04T13:40:20;22.50;1.00
4813;DHT22;2420;51.202;8.698;2023-06-04T13:42:46;22.20;1.00
4813;DHT22;2420;51.202;8.698;2023-06-04T13:45:11;22.10;1.00
4813;DHT22;2420;51.202;8.698;2023-06-04T13:47:37;21.80;1.00
4813;DHT22;2420;51.202;8.698;2023-06-04T13:50:03;21.80;1.00
4813;DHT22;2420;51.202;8.698;2023-06-04T13:52:29;22.00;1.00
4813;DHT22;2420;51.202;8.698;2023-06-04T13:54:55;22.30;1.00
4813;DHT22;2420;51.202;8.698;2023-06-04T13:57:21;22.10;1.00
4813;DHT22;2420;51.202;8.698;2023-06-04T13:59:48;22.10;1.00
4813;DHT22;2420;51.202;8.698;2023-06-04T14:02:14;21.80;1.00
4813;DHT22;2420;51.202;8.698;2023-06-04T14:04:40;21.90;1.00
4813;DHT22;2420;51.202;8.698;2023-06-04T14:07:05;22.10;1.00
4813;DHT22;2420;51.202;8.698;2023-06-04T14:09:31;22.10;1.00
4813;DHT22;2420;51.202;8.698;2023-06-04T14:11:57;22.30;1.00
4813;DHT22;2420;51.202;8.698;2023-06-04T14:14:23;22.40;1.00
4813;DHT22;2420;51.202;8.698;2023-06-04T14:16:48;22.70;1.00
4813;DHT22;2420;51.202;8.698;2023-06-04T14:19:15;22.80;1.00
4813;DHT22;2420;51.202;8.698;2023-06-04T14:21:44;22.50;1.00
4813;DHT22;2420;51.202;8.698;2023-06-04T14:24:10;22.30;1.00
4813;DHT22;2420;51.202;8.698;2023-06-04T14:26:36;22.10;1.00
4813;DHT22;2420;51.202;8.698;2023-06-04T14:29:02;22.00;1.00
4813;DHT22;2420;51.202;8.698;2023-06-04T14:31:27;22.00;1.00
4813;DHT22;2420;51.202;8.698;2023-06-04T14:33:53;22.00;1.00
4813;DHT22;2420;51.202;8.698;2023-06-04T14:36:19;21.70;1.00
4813;DHT22;2420;51.202;8.698;2023-06-04T14:38:44;21.70;1.00
4813;DHT22;2420;51.202;8.698;2023-06-04T14:41:11;21.70;1.00
4813;DHT22;2420;51.202;8.698;2023-06-04T14:43:37;21.70;1.00
4813;DHT22;2420;51.202;8.698;2023-06-04T14:46:03;21.90;1.00
4813;DHT22;2420;51.202;8.698;2023-06-04T14:48:29;22.10;1.00
4813;DHT22;2420;51.202;8.698;2023-06-04T14:50:54;22.40;1.00
4813;DHT22;2420;51.202;8.698;2023-06-04T14:53:21;22.40;1.00
4813;DHT22;2420;51.202;8.698;2023-06-04T14:55:47;22.30;1.00
4813;DHT22;2420;51.202;8.698;2023-06-04T14:58:13;22.10;1.00
4813;DHT22;2420;51.202;8.698;2023-06-04T15:00:39;22.10;1.00
4813;DHT22;2420;51.202;8.698;2023-06-04T15:03:05;22.10;1.00
4813;DHT22;2420;51.202;8.698;2023-06-04T15:05:31;21.90;1.00
4813;DHT22;2420;51.202;8.698;2023-06-04T15:07:57;21.80;1.00
4813;DHT22;2420;51.202;8.698;2023-06-04T15:10:24;21.70;1.00
4813;DHT22;2420;51.202;8.698;2023-06-04T15:12:50;21.60;1.00
4813;DHT22;2420;51.202;8.698;2023-06-04T15:15:15;21.50;1.00
4813;DHT22;2420;51.202;8.698;2023-06-04T15:17:41;21.50;1.00
4813;DHT22;2420;51.202;8.698;2023-06-04T15:20:07;21.50;1.00
4813;DHT22;2420;51.202;8.698;2023-06-04T15:22:33;21.60;1.00
4813;DHT22;2420;51.202;8.698;2023-06-04T15:24:59;21.60;1.00
4813;DHT22;2420;51.202;8.698;2023-06-04T15:27:24;21.50;1.00
4813;DHT22;2420;51.202;8.698;2023-06-04T15:29:50;21.50;1.00
4813;DHT22;2420;51.202;8.698;2023-06-04T15:32:17;21.50;1.00
4813;DHT22;2420;51.202;8.698;2023-06-04T15:34:43;21.50;1.00
4813;DHT22;2420;51.202;8.698;2023-06-04T15:37:09;21.30;1.00
4813;DHT22;2420;51.202;8.698;2023-06-04T15:39:34;21.30;1.00
4813;DHT22;2420;51.202;8.698;2023-06-04T15:42:00;21.20;1.00
4813;DHT22;2420;51.202;8.698;2023-06-04T15:44:25;21.30;1.00
4813;DHT22;2420;51.202;8.698;2023-06-04T15:46:52;21.30;1.00
4813;DHT22;2420;51.202;8.698;2023-06-04T15:49:18;21.50;1.00
4813;DHT22;2420;51.202;8.698;2023-06-04T15:51:44;21.60;1.00
4813;DHT22;2420;51.202;8.698;2023-06-04T15:54:09;21.60;1.00
4813;DHT22;2420;51.202;8.698;2023-06-04T15:56:35;21.40;1.00
4813;DHT22;2420;51.202;8.698;2023-06-04T15:59:01;21.30;1.00
4813;DHT22;2420;51.202;8.698;2023-06-04T16:01:28;21.20;1.00
4813;DHT22;2420;51.202;8.698;2023-06-04T16:03:54;21.00;1.00
4813;DHT22;2420;51.202;8.698;2023-06-04T16:06:20;20.90;1.00
4813;DHT22;2420;51.202;8.698;2023-06-04T16:08:46;21.00;1.00
4813;DHT22;2420;51.202;8.698;2023-06-04T16:11:12;20.80;1.00
4813;DHT22;2420;51.202;8.698;2023-06-04T16:13:37;20.80;1.00
4813;DHT22;2420;51.202;8.698;2023-06-04T16:16:03;20.80;1.00
4813;DHT22;2420;51.202;8.698;2023-06-04T16:18:29;20.70;1.00
4813;DHT22;2420;51.202;8.698;2023-06-04T16:20:55;20.80;1.00
4813;DHT22;2420;51.202;8.698;2023-06-04T16:23:21;20.80;1.00
4813;DHT22;2420;51.202;8.698;2023-06-04T16:25:47;20.70;1.00
4813;DHT22;2420;51.202;8.698;2023-06-04T16:28:13;20.60;1.00